createdAt,value
2023-04-27T00:00:36.494Z,361.3571
2023-04-27T00:01:44.558Z,361.2857
2023-04-27T00:02:52.801Z,361.4286
2023-04-27T00:04:00.853Z,360.4286
2023-04-27T00:05:09.095Z,364.5714
2023-04-27T00:06:16.978Z,361.7857
2023-04-27T00:07:24.910Z,362.7143
2023-04-27T00:08:32.844Z,365.2857
2023-04-27T00:09:40.891Z,367.1429
2023-04-27T00:10:48.964Z,362.2143
2023-04-27T00:11:57.180Z,364.0000
2023-04-27T00:13:05.179Z,364.0000
2023-04-27T00:14:13.277Z,365.6429
2023-04-27T00:15:21.341Z,364.7143
2023-04-27T00:16:29.434Z,367.2857
2023-04-27T00:17:37.506Z,368.0714
2023-04-27T00:18:45.499Z,369.4286
2023-04-27T00:19:53.561Z,368.3571
2023-04-27T00:21:01.665Z,373.0714
2023-04-27T00:22:09.735Z,373.0000
2023-04-27T00:23:17.634Z,375.2857
2023-04-27T00:24:25.693Z,374.1429
2023-04-27T00:25:33.739Z,375.6429
2023-04-27T00:26:41.999Z,372.5714
2023-04-27T00:27:50.051Z,374.6429
2023-04-27T00:28:58.098Z,373.7857
2023-04-27T00:30:06.158Z,373.0000
2023-04-27T00:31:14.158Z,371.8571
2023-04-27T00:32:22.283Z,372.3571
2023-04-27T00:33:30.352Z,369.9286
2023-04-27T00:34:38.342Z,372.3571
2023-04-27T00:35:46.423Z,373.0000
2023-04-27T00:36:54.477Z,373.5714
2023-04-27T00:38:02.409Z,375.9286
2023-04-27T00:39:10.523Z,377.1429
2023-04-27T00:40:18.554Z,375.5000
2023-04-27T00:41:27.062Z,371.0000
2023-04-27T00:42:34.805Z,376.2143
2023-04-27T00:43:43.078Z,373.3571
2023-04-27T00:44:50.966Z,376.3571
2023-04-27T00:45:58.996Z,373.6429
2023-04-27T00:47:07.260Z,371.7143
2023-04-27T00:48:15.103Z,372.5714
2023-04-27T00:49:23.211Z,373.7857
2023-04-27T00:50:31.301Z,371.0000
2023-04-27T00:51:39.295Z,369.5714
2023-04-27T00:52:47.265Z,369.7857
2023-04-27T00:53:55.326Z,368.8571
2023-04-27T00:55:03.391Z,370.9286
2023-04-27T00:56:11.856Z,372.7143
2023-04-27T00:57:19.606Z,370.2857
2023-04-27T00:58:27.726Z,365.1429
2023-04-27T00:59:35.767Z,364.7857
2023-04-27T01:00:43.824Z,361.2143
2023-04-27T01:01:51.918Z,364.6429
2023-04-27T01:03:00.056Z,365.4286
2023-04-27T01:04:08.267Z,361.4286
2023-04-27T01:05:16.068Z,366.2857
2023-04-27T01:06:24.112Z,369.7857
2023-04-27T01:07:32.109Z,371.7857
2023-04-27T01:08:40.154Z,373.2143
2023-04-27T01:09:48.217Z,372.2143
2023-04-27T01:10:56.346Z,372.2143
2023-04-27T01:12:04.621Z,369.2857
2023-04-27T01:13:12.658Z,370.0714
2023-04-27T01:14:20.572Z,370.2857
2023-04-27T01:15:28.695Z,369.4286
2023-04-27T01:16:36.802Z,367.3571
2023-04-27T01:17:44.792Z,365.6429
2023-04-27T01:18:53.028Z,365.7857
2023-04-27T01:20:00.905Z,364.6429
2023-04-27T01:21:08.966Z,363.2857
2023-04-27T01:22:16.901Z,365.6429
2023-04-27T01:23:25.002Z,367.0000
2023-04-27T01:24:33.072Z,366.1429
2023-04-27T01:25:41.232Z,365.0000
2023-04-27T01:26:49.361Z,367.2143
2023-04-27T01:27:57.493Z,368.5000
2023-04-27T01:29:05.422Z,367.9286
2023-04-27T01:30:13.492Z,364.6429
2023-04-27T01:31:21.593Z,365.8571
2023-04-27T01:32:29.631Z,365.3571
2023-04-27T01:33:37.670Z,368.5714
2023-04-27T01:34:45.748Z,367.9286
2023-04-27T01:35:53.954Z,365.1429
2023-04-27T01:37:01.743Z,369.1429
2023-04-27T01:38:09.817Z,368.7143
2023-04-27T01:39:17.878Z,370.8571
2023-04-27T01:40:26.125Z,369.5000
2023-04-27T01:41:34.175Z,369.7143
2023-04-27T01:42:42.451Z,374.0714
2023-04-27T01:43:50.370Z,372.7857
2023-04-27T01:44:58.321Z,375.1429
2023-04-27T01:46:06.399Z,377.2143
2023-04-27T01:47:14.473Z,377.8571
2023-04-27T01:48:22.465Z,376.0714
2023-04-27T01:49:30.604Z,376.5000
2023-04-27T01:50:38.661Z,376.5714
2023-04-27T01:51:46.548Z,377.0714
2023-04-27T01:52:54.661Z,375.0714
2023-04-27T01:54:02.662Z,377.0714
2023-04-27T01:55:11.030Z,377.1429
2023-04-27T01:56:18.934Z,375.0000
2023-04-27T01:57:27.076Z,372.6429
2023-04-27T01:58:35.133Z,372.4286
2023-04-27T01:59:43.235Z,375.0714
2023-04-27T02:00:51.204Z,372.2143
2023-04-27T02:01:59.289Z,371.3571
2023-04-27T02:03:07.483Z,374.0714
2023-04-27T02:04:15.719Z,375.0000
2023-04-27T02:05:23.322Z,371.4286
2023-04-27T02:06:31.407Z,371.7143
2023-04-27T02:07:39.462Z,366.6429
2023-04-27T02:08:47.773Z,365.6429
2023-04-27T02:09:55.797Z,370.3571
2023-04-27T02:11:03.762Z,367.9286
2023-04-27T02:12:11.946Z,370.4286
2023-04-27T02:13:19.888Z,368.1429
2023-04-27T02:14:27.971Z,371.7857
2023-04-27T02:15:36.152Z,367.4286
2023-04-27T02:16:44.113Z,367.2857
2023-04-27T02:17:52.192Z,368.0714
2023-04-27T02:19:00.215Z,369.9286
2023-04-27T02:20:08.153Z,372.4286
2023-04-27T02:21:16.245Z,372.7143
2023-04-27T02:22:24.271Z,367.8571
2023-04-27T02:23:32.449Z,367.1429
2023-04-27T02:24:40.640Z,371.2857
2023-04-27T02:25:48.580Z,369.0000
2023-04-27T02:26:56.849Z,370.7143
2023-04-27T02:28:04.692Z,371.8571
2023-04-27T02:29:13.060Z,371.0000
2023-04-27T02:30:20.889Z,372.0000
2023-04-27T02:31:29.056Z,373.7857
2023-04-27T02:32:36.997Z,373.6429
2023-04-27T02:33:44.997Z,378.2143
2023-04-27T02:34:52.959Z,376.2857
2023-04-27T02:36:01.008Z,375.7857
2023-04-27T02:37:09.033Z,378.7143
2023-04-27T02:38:17.299Z,379.7857
2023-04-27T02:39:25.309Z,379.5000
2023-04-27T02:40:33.504Z,380.2857
2023-04-27T02:41:41.457Z,378.5714
2023-04-27T02:42:49.522Z,373.6429
2023-04-27T02:43:57.606Z,376.0000
2023-04-27T02:45:05.675Z,373.5000
2023-04-27T02:46:13.740Z,371.0714
2023-04-27T02:47:21.762Z,372.4286
2023-04-27T02:48:29.926Z,373.5714
2023-04-27T02:49:38.176Z,370.8571
2023-04-27T02:50:45.793Z,367.8571
2023-04-27T02:51:53.863Z,367.2143
2023-04-27T02:53:02.082Z,367.2857
2023-04-27T02:54:10.143Z,363.2143
2023-04-27T02:55:18.257Z,362.4286
2023-04-27T02:56:26.425Z,360.9286
2023-04-27T02:57:34.305Z,359.3571
2023-04-27T02:58:42.393Z,359.4286
2023-04-27T02:59:50.459Z,361.3571
2023-04-27T03:00:58.561Z,360.5000
2023-04-27T03:02:06.587Z,356.7143
2023-04-27T03:03:14.905Z,353.5000
2023-04-27T03:04:22.624Z,355.0000
2023-04-27T03:05:30.630Z,353.8571
2023-04-27T03:06:38.707Z,351.2857
2023-04-27T03:07:46.934Z,356.2857
2023-04-27T03:08:54.955Z,354.1429
2023-04-27T03:10:02.969Z,356.9286
2023-04-27T03:11:11.113Z,358.5000
2023-04-27T03:12:19.300Z,358.0714
2023-04-27T03:13:27.198Z,357.2143
2023-04-27T03:14:35.252Z,362.1429
2023-04-27T03:15:43.549Z,359.2143
2023-04-27T03:16:51.511Z,355.1429
2023-04-27T03:17:59.521Z,352.8571
2023-04-27T03:19:07.385Z,355.2143
2023-04-27T03:20:15.440Z,354.9286
2023-04-27T03:21:23.476Z,355.6429
2023-04-27T03:22:31.748Z,358.5714
2023-04-27T03:23:39.775Z,354.6429
2023-04-27T03:24:47.841Z,358.6429
2023-04-27T03:25:55.916Z,355.8571
2023-04-27T03:27:03.904Z,359.1429
2023-04-27T03:28:12.126Z,357.1429
2023-04-27T03:29:20.095Z,355.2143
2023-04-27T03:30:28.134Z,355.5714
2023-04-27T03:31:36.236Z,354.2143
2023-04-27T03:32:47.039Z,357.0000
2023-04-27T03:33:57.063Z,354.2667
2023-04-27T03:35:05.134Z,353.7143
2023-04-27T03:36:13.165Z,354.7143
2023-04-27T03:37:21.345Z,356.1429
2023-04-27T03:38:29.421Z,357.5714
2023-04-27T03:39:37.484Z,358.2857
2023-04-27T03:40:45.582Z,358.5000
2023-04-27T03:41:53.668Z,359.4286
2023-04-27T03:43:01.685Z,359.7857
2023-04-27T03:44:09.852Z,359.4286
2023-04-27T03:45:17.782Z,360.5000
2023-04-27T03:46:25.979Z,359.2857
2023-04-27T03:47:33.977Z,359.4286
2023-04-27T03:48:41.829Z,354.8571
2023-04-27T03:49:49.914Z,354.0000
2023-04-27T03:50:58.056Z,353.2857
2023-04-27T03:52:06.208Z,350.4286
2023-04-27T03:53:14.225Z,351.1429
2023-04-27T03:54:22.245Z,347.1429
2023-04-27T03:55:30.353Z,345.6429
2023-04-27T03:56:38.481Z,344.7143
2023-04-27T03:57:46.586Z,344.5000
2023-04-27T03:58:54.591Z,345.5000
2023-04-27T04:00:02.687Z,346.3571
2023-04-27T04:01:11.116Z,346.5714
2023-04-27T04:02:18.709Z,347.5000
2023-04-27T04:03:26.958Z,346.7857
2023-04-27T04:04:34.953Z,345.1429
2023-04-27T04:05:42.911Z,344.8571
2023-04-27T04:06:51.025Z,345.8571
2023-04-27T04:07:59.039Z,348.5714
2023-04-27T04:09:07.285Z,348.1429
2023-04-27T04:10:15.161Z,352.1429
2023-04-27T04:11:23.264Z,349.8571
2023-04-27T04:12:31.314Z,353.2143
2023-04-27T04:13:39.422Z,353.2857
2023-04-27T04:14:47.535Z,353.4286
2023-04-27T04:15:55.658Z,349.8571
2023-04-27T04:17:03.449Z,349.2857
2023-04-27T04:18:11.555Z,350.5714
2023-04-27T04:19:20.760Z,354.0000
2023-04-27T04:20:32.677Z,353.9333
2023-04-27T04:21:40.683Z,355.7143
2023-04-27T04:22:48.777Z,354.1429
2023-04-27T04:23:56.845Z,354.4286
2023-04-27T04:25:04.962Z,353.5714
2023-04-27T04:26:12.974Z,350.3571
2023-04-27T04:27:20.988Z,349.6429
2023-04-27T04:28:29.015Z,346.5714
2023-04-27T04:29:37.082Z,338.9286
2023-04-27T04:30:45.019Z,338.0714
2023-04-27T04:31:53.176Z,332.7143
2023-04-27T04:33:01.177Z,328.8571
2023-04-27T04:34:09.342Z,324.3571
2023-04-27T04:35:17.392Z,320.2857
2023-04-27T04:36:25.428Z,323.3571
2023-04-27T04:37:33.537Z,323.7143
2023-04-27T04:38:41.583Z,328.3571
2023-04-27T04:39:49.655Z,332.3571
2023-04-27T04:40:57.833Z,333.7857
2023-04-27T04:42:05.810Z,337.8571
2023-04-27T04:43:13.801Z,342.7143
2023-04-27T04:44:21.865Z,345.3571
2023-04-27T04:45:29.812Z,345.8571
2023-04-27T04:46:37.947Z,347.2857
2023-04-27T04:47:45.938Z,347.0714
2023-04-27T04:48:54.847Z,350.0000
2023-04-27T04:50:02.418Z,352.5714
2023-04-27T04:51:10.216Z,350.6429
2023-04-27T04:52:18.438Z,347.3571
2023-04-27T04:53:26.280Z,352.7143
2023-04-27T04:54:34.414Z,356.4286
2023-04-27T04:55:42.475Z,358.9286
2023-04-27T04:56:50.632Z,360.6429
2023-04-27T04:57:58.622Z,358.9286
2023-04-27T04:59:06.571Z,361.7857
2023-04-27T05:00:14.603Z,362.2143
2023-04-27T05:01:22.673Z,366.6429
2023-04-27T05:02:30.756Z,363.5000
2023-04-27T05:03:38.960Z,363.8571
2023-04-27T05:04:47.143Z,365.7143
2023-04-27T05:05:55.113Z,368.2143
2023-04-27T05:07:03.090Z,368.9286
2023-04-27T05:08:11.062Z,367.4286
2023-04-27T05:09:19.178Z,368.1429
2023-04-27T05:10:27.194Z,364.2143
2023-04-27T05:11:35.353Z,366.8571
2023-04-27T05:12:43.356Z,364.8571
2023-04-27T05:13:51.477Z,365.5000
2023-04-27T05:14:59.338Z,363.7143
2023-04-27T05:16:07.468Z,366.2143
2023-04-27T05:17:15.493Z,365.7857
2023-04-27T05:18:23.633Z,363.3571
2023-04-27T05:19:31.776Z,363.2857
2023-04-27T05:20:39.735Z,362.5714
2023-04-27T05:21:47.987Z,365.8571
2023-04-27T05:22:55.889Z,365.2857
2023-04-27T05:24:03.927Z,366.8571
2023-04-27T05:25:12.097Z,367.6429
2023-04-27T05:26:20.045Z,372.6429
2023-04-27T05:27:28.096Z,374.3571
2023-04-27T05:28:36.177Z,379.0000
2023-04-27T05:29:44.103Z,382.6429
2023-04-27T05:30:52.201Z,385.5000
2023-04-27T05:32:00.357Z,386.5714
2023-04-27T05:33:08.449Z,390.0714
2023-04-27T05:34:16.597Z,390.3571
2023-04-27T05:35:24.569Z,391.7143
2023-04-27T05:36:32.609Z,395.2143
2023-04-27T05:37:40.572Z,396.0714
2023-04-27T05:38:48.693Z,399.2143
2023-04-27T05:39:56.813Z,400.0714
2023-04-27T05:41:04.826Z,400.5000
2023-04-27T05:42:12.867Z,403.6429
2023-04-27T05:43:20.963Z,406.1429
2023-04-27T05:44:28.911Z,408.2143
2023-04-27T05:45:37.005Z,412.7857
2023-04-27T05:46:45.013Z,412.7143
2023-04-27T05:47:53.232Z,415.6429
2023-04-27T05:49:01.361Z,415.8571
2023-04-27T05:50:09.353Z,417.5714
2023-04-27T05:51:17.394Z,416.9286
2023-04-27T05:52:25.375Z,419.0000
2023-04-27T05:53:33.496Z,424.7143
2023-04-27T05:54:41.487Z,425.6429
2023-04-27T05:55:49.682Z,425.6429
2023-04-27T05:56:57.704Z,430.5000
2023-04-27T05:58:08.963Z,434.0000
2023-04-27T05:59:18.470Z,435.4667
2023-04-27T06:00:26.554Z,436.5000
2023-04-27T06:01:34.588Z,433.5714
2023-04-27T06:02:42.956Z,434.8571
2023-04-27T06:03:50.924Z,436.1429
2023-04-27T06:04:59.086Z,434.0714
2023-04-27T06:06:06.904Z,428.6429
2023-04-27T06:07:16.153Z,431.8571
2023-04-27T06:08:23.112Z,428.5714
2023-04-27T06:09:31.069Z,430.2857
2023-04-27T06:10:39.108Z,431.6429
2023-04-27T06:11:47.233Z,432.0714
2023-04-27T06:12:55.347Z,431.9286
2023-04-27T06:14:03.255Z,436.7143
2023-04-27T06:15:11.287Z,438.3571
2023-04-27T06:16:19.449Z,440.5714
2023-04-27T06:17:27.508Z,444.7143
2023-04-27T06:18:35.559Z,447.0000
2023-04-27T06:19:43.646Z,447.3571
2023-04-27T06:20:51.790Z,446.7857
2023-04-27T06:21:59.709Z,450.8571
2023-04-27T06:23:07.789Z,447.5714
2023-04-27T06:24:15.848Z,447.8571
2023-04-27T06:25:27.074Z,448.5714
2023-04-27T06:26:36.862Z,447.8667
2023-04-27T06:27:44.788Z,451.0714
2023-04-27T06:28:52.847Z,453.2143
2023-04-27T06:30:01.043Z,452.9286
2023-04-27T06:31:09.109Z,457.2143
2023-04-27T06:32:17.081Z,455.5714
2023-04-27T06:33:25.109Z,461.6429
2023-04-27T06:34:33.174Z,460.4286
2023-04-27T06:35:41.250Z,459.2857
2023-04-27T06:36:49.338Z,460.8571
2023-04-27T06:37:57.471Z,459.5000
2023-04-27T06:39:05.409Z,460.8571
2023-04-27T06:40:13.485Z,463.2857
2023-04-27T06:41:21.659Z,463.1429
2023-04-27T06:42:29.588Z,463.1429
2023-04-27T06:43:37.569Z,465.3571
2023-04-27T06:44:45.705Z,466.3571
2023-04-27T06:45:53.906Z,465.7143
2023-04-27T06:47:01.848Z,460.0714
2023-04-27T06:48:10.012Z,458.3571
2023-04-27T06:49:17.939Z,456.8571
2023-04-27T06:50:26.027Z,451.2143
2023-04-27T06:51:34.120Z,451.1429
2023-04-27T06:52:42.320Z,450.8571
2023-04-27T06:53:50.258Z,455.0000
2023-04-27T06:54:58.278Z,458.2857
2023-04-27T06:56:06.309Z,458.9286
2023-04-27T06:57:14.310Z,462.6429
2023-04-27T06:58:22.359Z,461.7857
2023-04-27T06:59:30.412Z,465.0000
2023-04-27T07:00:38.518Z,466.2143
2023-04-27T07:01:46.561Z,468.7143
2023-04-27T07:02:54.673Z,468.0714
2023-04-27T07:04:02.780Z,469.4286
2023-04-27T07:05:10.721Z,469.2857
2023-04-27T07:06:18.833Z,469.1429
2023-04-27T07:07:26.909Z,469.8571
2023-04-27T07:08:35.034Z,466.7143
2023-04-27T07:09:43.113Z,465.2143
2023-04-27T07:10:51.136Z,467.1429
2023-04-27T07:11:59.226Z,462.6429
2023-04-27T07:13:09.119Z,459.9286
2023-04-27T07:14:20.077Z,460.4667
2023-04-27T07:15:28.154Z,461.9286
2023-04-27T07:16:36.274Z,455.8571
2023-04-27T07:17:44.261Z,457.0714
2023-04-27T07:18:52.336Z,456.7143
2023-04-27T07:20:00.376Z,455.7857
2023-04-27T07:21:08.549Z,456.1429
2023-04-27T07:22:16.518Z,454.9286
2023-04-27T07:23:24.569Z,457.6429
2023-04-27T07:24:32.690Z,460.1429
2023-04-27T07:25:40.563Z,459.7143
2023-04-27T07:26:48.654Z,462.5714
2023-04-27T07:27:56.704Z,459.5000
2023-04-27T07:29:14.439Z,463.7857
2023-04-27T07:30:17.910Z,462.2000
2023-04-27T07:31:26.301Z,461.5000
2023-04-27T07:32:33.983Z,461.0000
2023-04-27T07:33:42.006Z,459.2143
2023-04-27T07:34:54.082Z,459.7857
2023-04-27T07:36:02.922Z,460.6000
2023-04-27T07:37:11.027Z,460.8571
2023-04-27T07:38:18.976Z,460.5714
2023-04-27T07:39:27.057Z,460.7143
2023-04-27T07:40:35.059Z,464.1429
2023-04-27T07:41:43.223Z,463.5000
2023-04-27T07:42:51.289Z,465.3571
2023-04-27T07:43:59.395Z,465.2143
2023-04-27T07:45:07.514Z,464.7143
2023-04-27T07:46:15.459Z,463.4286
2023-04-27T07:47:23.574Z,463.5714
2023-04-27T07:48:31.544Z,465.2857
2023-04-27T07:49:39.642Z,468.2857
2023-04-27T07:50:47.646Z,470.7857
2023-04-27T07:51:55.782Z,469.2143
2023-04-27T07:53:03.791Z,468.9286
2023-04-27T07:54:11.774Z,470.4286
2023-04-27T07:55:19.859Z,478.2857
2023-04-27T07:56:28.055Z,474.5714
2023-04-27T07:57:36.139Z,475.6429
2023-04-27T07:58:44.076Z,473.5000
2023-04-27T07:59:52.184Z,471.9286
2023-04-27T08:01:00.194Z,469.7143
2023-04-27T08:02:19.113Z,467.2143
2023-04-27T08:03:21.231Z,465.7333
2023-04-27T08:04:29.406Z,464.9286
2023-04-27T08:05:37.490Z,461.0714
2023-04-27T08:06:45.880Z,460.6429
2023-04-27T08:07:53.990Z,467.7143
2023-04-27T08:09:01.550Z,465.2143
2023-04-27T08:10:09.589Z,462.5714
2023-04-27T08:11:17.629Z,465.4286
2023-04-27T08:12:25.639Z,468.0000
2023-04-27T08:13:33.893Z,467.7143
2023-04-27T08:14:41.753Z,471.4286
2023-04-27T08:15:49.825Z,476.3571
2023-04-27T08:16:58.027Z,479.9286
2023-04-27T08:18:05.991Z,487.2857
2023-04-27T08:19:14.207Z,489.5000
2023-04-27T08:20:21.937Z,501.3571
2023-04-27T08:21:29.989Z,508.9286
2023-04-27T08:22:38.063Z,512.7857
2023-04-27T08:23:46.106Z,515.4286
2023-04-27T08:24:54.211Z,517.7857
2023-04-27T08:26:02.311Z,517.3571
2023-04-27T08:27:10.264Z,520.5000
2023-04-27T08:28:18.428Z,524.2143
2023-04-27T08:29:28.813Z,526.2857
2023-04-27T08:30:39.482Z,533.4000
2023-04-27T08:31:47.529Z,534.7143
2023-04-27T08:32:55.559Z,532.9286
2023-04-27T08:34:03.449Z,533.0000
2023-04-27T08:35:11.546Z,534.0714
2023-04-27T08:36:19.584Z,531.0000
2023-04-27T08:37:27.753Z,523.3571
2023-04-27T08:38:35.842Z,513.0000
2023-04-27T08:39:43.804Z,512.3571
2023-04-27T08:40:51.897Z,506.4286
2023-04-27T08:42:00.014Z,508.3571
2023-04-27T08:43:08.008Z,507.7143
2023-04-27T08:44:16.107Z,503.3571
2023-04-27T08:45:24.115Z,503.9286
2023-04-27T08:46:32.163Z,505.6429
2023-04-27T08:47:43.421Z,512.5000
2023-04-27T08:48:53.059Z,514.4667
2023-04-27T08:50:01.121Z,515.9286
2023-04-27T08:51:09.121Z,514.3571
2023-04-27T08:52:17.356Z,516.6429
2023-04-27T08:53:25.404Z,514.7143
2023-04-27T08:54:33.313Z,521.0714
2023-04-27T08:55:41.496Z,522.6429
2023-04-27T08:56:49.519Z,527.7857
2023-04-27T08:57:57.590Z,531.1429
2023-04-27T08:59:05.661Z,534.9286
2023-04-27T09:00:13.711Z,536.2857
2023-04-27T09:01:21.944Z,538.1429
2023-04-27T09:02:30.036Z,538.0000
2023-04-27T09:03:37.995Z,536.7857
2023-04-27T09:04:45.909Z,536.7143
2023-04-27T09:06:04.369Z,532.9286
2023-04-27T09:07:06.897Z,536.7333
2023-04-27T09:08:14.975Z,535.3571
2023-04-27T09:09:23.008Z,536.4286
2023-04-27T09:10:31.283Z,537.0714
2023-04-27T09:11:39.165Z,538.6429
2023-04-27T09:12:47.222Z,542.1429
2023-04-27T09:13:55.225Z,540.0000
2023-04-27T09:15:03.308Z,537.5714
2023-04-27T09:16:11.523Z,538.5000
2023-04-27T09:17:19.339Z,539.6429
2023-04-27T09:18:27.321Z,541.0000
2023-04-27T09:19:35.406Z,541.2857
2023-04-27T09:20:43.552Z,539.3571
2023-04-27T09:21:51.714Z,543.0000
2023-04-27T09:22:59.871Z,541.9286
2023-04-27T09:24:07.744Z,540.0000
2023-04-27T09:25:15.779Z,539.0000
2023-04-27T09:26:23.795Z,541.4286
2023-04-27T09:27:31.824Z,542.8571
2023-04-27T09:28:39.944Z,543.3571
2023-04-27T09:29:48.192Z,545.0714
2023-04-27T09:30:56.055Z,542.7143
2023-04-27T09:32:04.181Z,540.9286
2023-04-27T09:33:12.081Z,544.2143
2023-04-27T09:34:20.122Z,538.0000
2023-04-27T09:35:28.358Z,536.4286
2023-04-27T09:36:36.226Z,538.6429
2023-04-27T09:37:44.426Z,539.5714
2023-04-27T09:38:52.490Z,533.8571
2023-04-27T09:40:00.449Z,533.0000
2023-04-27T09:41:08.594Z,533.0714
2023-04-27T09:42:16.515Z,527.4286
2023-04-27T09:43:24.633Z,524.5714
2023-04-27T09:44:32.917Z,525.8571
2023-04-27T09:45:40.856Z,520.9286
2023-04-27T09:46:48.743Z,522.3571
2023-04-27T09:47:56.887Z,521.7857
2023-04-27T09:49:04.843Z,521.7857
2023-04-27T09:50:12.916Z,525.1429
2023-04-27T09:51:21.071Z,530.2857
2023-04-27T09:52:29.186Z,531.5000
2023-04-27T09:53:37.077Z,529.2143
2023-04-27T09:54:45.234Z,530.7857
2023-04-27T09:55:53.435Z,530.8571
2023-04-27T09:57:01.347Z,534.7143
2023-04-27T09:58:09.375Z,529.6429
2023-04-27T09:59:17.449Z,534.0000
2023-04-27T10:00:25.469Z,541.0714
2023-04-27T10:01:35.274Z,541.9286
2023-04-27T10:02:53.068Z,543.3333
2023-04-27T10:03:59.443Z,547.7333
2023-04-27T10:05:07.364Z,548.5000
2023-04-27T10:06:15.471Z,559.0714
2023-04-27T10:07:23.566Z,558.5000
2023-04-27T10:08:31.891Z,553.1429
2023-04-27T10:09:39.670Z,553.5000
2023-04-27T10:10:47.698Z,555.2857
2023-04-27T10:11:55.727Z,554.7857
2023-04-27T10:13:03.883Z,552.3571
2023-04-27T10:14:11.790Z,552.7857
2023-04-27T10:15:19.836Z,551.7857
2023-04-27T10:16:27.909Z,557.3571
2023-04-27T10:17:36.116Z,560.5000
2023-04-27T10:18:44.052Z,567.5714
2023-04-27T10:19:54.305Z,572.3571
2023-04-27T10:21:05.024Z,576.0000
2023-04-27T10:22:13.166Z,587.0714
2023-04-27T10:23:21.361Z,598.5000
2023-04-27T10:24:29.227Z,607.2143
2023-04-27T10:25:37.323Z,604.0000
2023-04-27T10:26:45.299Z,601.0714
2023-04-27T10:27:53.370Z,591.2143
2023-04-27T10:29:01.324Z,590.8571
2023-04-27T10:30:09.405Z,594.0000
2023-04-27T10:31:17.603Z,599.3571
2023-04-27T10:32:25.683Z,600.0714
2023-04-27T10:33:33.639Z,597.5000
2023-04-27T10:34:41.662Z,592.6429
2023-04-27T10:35:49.856Z,586.2143
2023-04-27T10:36:57.788Z,580.3571
2023-04-27T10:38:05.845Z,574.3571
2023-04-27T10:39:14.217Z,578.0714
2023-04-27T10:40:21.988Z,577.6429
2023-04-27T10:41:30.099Z,580.6429
2023-04-27T10:42:37.974Z,590.0714
2023-04-27T10:43:46.035Z,603.3571
2023-04-27T10:44:54.106Z,615.7857
2023-04-27T10:46:02.346Z,632.0714
2023-04-27T10:47:10.297Z,639.7857
2023-04-27T10:48:18.270Z,645.7857
2023-04-27T10:49:26.441Z,651.4286
2023-04-27T10:50:34.607Z,649.3571
2023-04-27T10:51:42.592Z,657.9286
2023-04-27T10:52:50.636Z,660.1429
2023-04-27T10:53:58.632Z,662.5714
2023-04-27T10:55:06.679Z,660.2143
2023-04-27T10:56:14.741Z,664.6429
2023-04-27T10:57:22.712Z,670.4286
2023-04-27T10:58:41.421Z,672.7143
2023-04-27T10:59:43.960Z,676.0667
2023-04-27T11:00:51.749Z,685.4286
2023-04-27T11:01:59.884Z,687.4286
2023-04-27T11:03:08.037Z,700.7143
2023-04-27T11:04:16.478Z,700.8571
2023-04-27T11:05:24.058Z,711.5000
2023-04-27T11:06:32.194Z,794.2143
2023-04-27T11:07:40.182Z,886.1429
2023-04-27T11:08:48.231Z,968.4286
2023-04-27T11:09:56.284Z,1044.7858
2023-04-27T11:11:04.241Z,1098.4286
2023-04-27T11:12:12.289Z,1118.5714
2023-04-27T11:13:20.393Z,1102.4286
2023-04-27T11:14:28.498Z,1052.7858
2023-04-27T11:15:36.624Z,996.8571
2023-04-27T11:16:44.687Z,928.2857
2023-04-27T11:17:52.729Z,864.7143
2023-04-27T11:19:00.718Z,779.7143
2023-04-27T11:20:08.801Z,719.5000
2023-04-27T11:21:16.904Z,683.8571
2023-04-27T11:22:24.880Z,660.5000
2023-04-27T11:23:33.060Z,653.5000
2023-04-27T11:24:40.999Z,644.9286
2023-04-27T11:25:48.978Z,626.0714
2023-04-27T11:26:57.074Z,605.2857
2023-04-27T11:28:05.116Z,589.8571
2023-04-27T11:29:13.653Z,580.0714
2023-04-27T11:30:21.311Z,570.0714
2023-04-27T11:31:29.402Z,562.8571
2023-04-27T11:32:37.566Z,570.7143
2023-04-27T11:33:45.457Z,570.9286
2023-04-27T11:34:54.657Z,575.5714
2023-04-27T11:36:06.432Z,581.4000
2023-04-27T11:37:18.429Z,583.6429
2023-04-27T11:38:27.487Z,582.8666
2023-04-27T11:39:35.382Z,577.8571
2023-04-27T11:40:43.435Z,589.1429
2023-04-27T11:41:51.630Z,593.1429
2023-04-27T11:42:59.675Z,594.6429
2023-04-27T11:44:07.758Z,590.0714
2023-04-27T11:45:15.787Z,580.7857
2023-04-27T11:46:23.839Z,562.0000
2023-04-27T11:47:31.935Z,554.4286
2023-04-27T11:48:39.921Z,553.0714
2023-04-27T11:49:47.998Z,545.1429
2023-04-27T11:50:56.110Z,544.3571
2023-04-27T11:52:04.093Z,544.3571
2023-04-27T11:53:12.034Z,550.2143
2023-04-27T11:54:20.082Z,566.0000
2023-04-27T11:55:28.189Z,561.9286
2023-04-27T11:56:36.470Z,546.2857
2023-04-27T11:57:44.401Z,544.7143
2023-04-27T11:58:52.314Z,558.7143
2023-04-27T12:00:00.646Z,567.7143
2023-04-27T12:01:08.587Z,583.7857
2023-04-27T12:02:16.620Z,627.3571
2023-04-27T12:03:24.984Z,663.2857
2023-04-27T12:04:32.907Z,690.0714
2023-04-27T12:05:40.954Z,733.2143
2023-04-27T12:06:48.855Z,845.7143
2023-04-27T12:07:56.877Z,750.5000
2023-04-27T12:09:04.986Z,675.5000
2023-04-27T12:10:12.879Z,657.7143
2023-04-27T12:11:20.965Z,660.3571
2023-04-27T12:12:29.034Z,674.5714
2023-04-27T12:13:37.186Z,730.5714
2023-04-27T12:14:45.352Z,861.8571
2023-04-27T12:15:53.572Z,974.0000
2023-04-27T12:17:01.473Z,1102.1428
2023-04-27T12:18:09.602Z,1166.5000
2023-04-27T12:19:17.640Z,1229.2858
2023-04-27T12:20:25.718Z,1292.0000
2023-04-27T12:21:33.611Z,1370.5714
2023-04-27T12:22:41.717Z,1426.5714
2023-04-27T12:23:49.863Z,1492.1428
2023-04-27T12:24:57.734Z,1565.6428
2023-04-27T12:26:05.806Z,1632.8572
2023-04-27T12:27:13.858Z,1696.1428
2023-04-27T12:28:22.003Z,1709.7858
2023-04-27T12:29:29.998Z,1769.5714
2023-04-27T12:30:38.156Z,1774.1428
2023-04-27T12:31:46.256Z,1807.5000
2023-04-27T12:32:54.416Z,1865.8572
2023-04-27T12:34:02.304Z,1900.8572
2023-04-27T12:35:10.494Z,1917.8572
2023-04-27T12:36:18.567Z,1925.4286
2023-04-27T12:37:27.146Z,1959.7858
2023-04-27T12:38:34.440Z,2029.7142
2023-04-27T12:39:42.516Z,2086.4285
2023-04-27T12:40:50.608Z,2078.7144
2023-04-27T12:41:58.806Z,2012.2142
2023-04-27T12:43:06.734Z,1989.8572
2023-04-27T12:44:15.068Z,2017.1428
2023-04-27T12:45:22.905Z,2026.0000
2023-04-27T12:46:30.995Z,1983.4286
2023-04-27T12:47:58.345Z,1990.8572
2023-04-27T12:48:51.985Z,2027.4000
2023-04-27T12:50:00.013Z,2022.5714
2023-04-27T12:51:08.242Z,2022.8572
2023-04-27T12:52:16.132Z,2087.7144
2023-04-27T12:53:24.150Z,2147.4285
2023-04-27T12:54:32.240Z,2221.9285
2023-04-27T12:55:40.433Z,2251.6428
2023-04-27T12:56:48.385Z,2275.2856
2023-04-27T12:57:56.545Z,2303.8572
2023-04-27T12:59:04.604Z,2305.8572
2023-04-27T13:00:12.690Z,2236.5715
2023-04-27T13:01:20.634Z,2095.3572
2023-04-27T13:02:28.938Z,1918.8572
2023-04-27T13:03:37.095Z,1734.5000
2023-04-27T13:04:45.055Z,1561.7142
2023-04-27T13:05:53.028Z,1548.6428
2023-04-27T13:07:00.938Z,1618.4286
2023-04-27T13:08:08.997Z,1606.3572
2023-04-27T13:09:17.099Z,1605.7142
2023-04-27T13:10:25.226Z,1540.3572
2023-04-27T13:11:33.282Z,1425.8572
2023-04-27T13:12:41.608Z,1404.0000
2023-04-27T13:13:49.411Z,1311.8572
2023-04-27T13:14:57.547Z,1228.6428
2023-04-27T13:16:05.598Z,1120.2858
2023-04-27T13:17:13.627Z,1034.5714
2023-04-27T13:18:21.663Z,923.1429